^^
Datos históricos de la estación: Murcia-Puente Tocinos
Diario Informe para Agosto 1, 2019 Unidades:  Ingés    Métrico   Ambas
Diario Semanal Mensual Anual
  Máxima: Mínima: Promedio:
Temperatura: 92.5 °F 72.9 °F 81 °F
Punto de rocio: 70.7 °F 60.4 °F 65.1 °F
Humedad: 75.2% 38% 60%
Velocidad viento: 13.7mph 0mph 4.8mph
Racha viento: 23.5mph - -
Viento- - SSE
Presión: 29.9 in 29.8 in -
Precipitación: 0 in    
 
 
Tabla de datos para Agosto 1, 2019
Hora Temperatura Punto de rocio Presión Viento Velocidad viento Racha viento Humedad Intensidad lluvia(por hora) Nubes
00:04 77.4 °F 67.3 °F 29.9 in NO 4.7 mph 9 mph 71.3% 0 in
00:09 77.4 °F 67.3 °F 29.9 in North 4.1 mph 6 mph 71% 0 in
00:14 77.4 °F 67.3 °F 29.9 in NNO 2.9 mph 6 mph 71% 0 in
00:19 77.4 °F 66.9 °F 29.9 in NNO 2.6 mph 6 mph 70.5% 0 in
00:24 77.4 °F 66.7 °F 29.9 in ONO 2 mph 4.7 mph 70% 0 in
00:29 77.4 °F 66.7 °F 29.9 in ONO 2 mph 5 mph 69.9% 0 in
00:34 77.4 °F 66.4 °F 29.9 in Oeste 2 mph 5 mph 69.1% 0 in
00:39 77.4 °F 66.7 °F 29.9 in Oeste 2 mph 5 mph 70% 0 in
00:44 77.4 °F 66.7 °F 29.9 in Oeste 2 mph 5 mph 70% 0 in
00:49 77.4 °F 66.7 °F 29.9 in Oeste 1.3 mph   70% 0 in
00:54 77.4 °F 66.7 °F 29.9 in Calm   4.7 mph 70% 0 in
00:59 77.4 °F 66.7 °F 29.9 in ESE 0.7 mph 5 mph 70% 0 in
01:04 77.2 °F 66.7 °F 29.9 in ESE 1.8 mph 4.7 mph 70% 0 in
01:09 77.2 °F 66.6 °F 29.9 in ESE 1.9 mph 5 mph 70% 0 in
01:14 77.4 °F 67.1 °F 29.9 in ESE 2 mph 3.5 mph 70.8% 0 in
01:19 77.4 °F 66.9 °F 29.9 in ESE 1.4 mph 3.6 mph 70.4% 0 in
01:24 77.4 °F 67.3 °F 29.9 in Calm   4.6 mph 71% 0 in
01:29 77.5 °F 67.3 °F 29.9 in Sur 0.7 mph 5 mph 71% 0 in
01:34 77.5 °F 67.5 °F 29.9 in SSO 2 mph 5 mph 71% 0 in
01:39 77.5 °F 67.5 °F 29.9 in SSO 1.8 mph 3 mph 71% 0 in
01:44 77.5 °F 67.1 °F 29.9 in ENE 1.4 mph 4.6 mph 70.5% 0 in
01:49 77.4 °F 66.7 °F 29.9 in ONO 1.6 mph 5 mph 70% 0 in
01:54 76.8 °F 66.7 °F 29.9 in ONO 2 mph 3 mph 71% 0 in
01:59 76.6 °F 66.6 °F 29.9 in ONO 1.3 mph 3 mph 71.2% 0 in
02:04 76.5 °F 66.7 °F 29.9 in Calm   3 mph 72% 0 in
02:09 76.3 °F 66.6 °F 29.9 in ONO 0.4 mph 4.6 mph 72% 0 in
02:14 76.1 °F 66.4 °F 29.9 in ONO 1.4 mph 5 mph 72% 0 in
02:19 75.9 °F 66.2 °F 29.9 in NO 1.4 mph 4.6 mph 72% 0 in
02:24 75.9 °F 66.2 °F 29.9 in NO 1.4 mph 5 mph 72% 0 in
02:29 75.9 °F 66.4 °F 29.9 in NO 1.6 mph 4 mph 72.4% 0 in
02:34 75.9 °F 66.6 °F 29.9 in ONO 1.8 mph 5 mph 73% 0 in
02:39 75.9 °F 66.6 °F 29.9 in ONO 1.7 mph 2 mph 73% 0 in
02:44 75.9 °F 66.6 °F 29.9 in ONO 1.4 mph   73.1% 0 in
02:49 76.1 °F 67.3 °F 29.9 in SSE 0.9 mph 4.6 mph 74% 0 in
02:54 76.3 °F 67.5 °F 29.9 in Calm   5 mph 74% 0 in
02:59 76.5 °F 67.6 °F 29.9 in ENE 0.7 mph 4 mph 74% 0 in
03:04 76.5 °F 67.6 °F 29.9 in ENE 1.8 mph   74% 0 in
03:09 76.5 °F 67.6 °F 29.9 in Este 1.2 mph 2.4 mph 74% 0 in
03:14 76.5 °F 67.3 °F 29.9 in Calm   5.2 mph 73.4% 0 in
03:19 76.1 °F 67.1 °F 29.9 in Sur 1 mph 5.8 mph 73.7% 0 in
03:24 75.7 °F 66.9 °F 29.9 in SSO 2.9 mph 6.2 mph 74% 0 in
03:29 75.6 °F 66.6 °F 29.9 in OSO 3.2 mph 6.9 mph 73.7% 0 in
03:34 75.6 °F 66.4 °F 29.9 in OSO 4 mph 7 mph 72.9% 0 in
03:39 75.7 °F 66 °F 29.9 in OSO 3.7 mph 6.9 mph 72% 0 in
03:44 75.6 °F 65.8 °F 29.9 in OSO 2.9 mph 7 mph 71.6% 0 in
03:49 75.6 °F 65.3 °F 29.9 in SSO 3.1 mph 7 mph 70.6% 0 in
03:54 75.6 °F 65.1 °F 29.9 in ESE 3.6 mph 5.2 mph 70% 0 in
03:59 75.6 °F 65.1 °F 29.9 in OSO 3.4 mph 6.2 mph 70% 0 in
04:04 75.6 °F 64.9 °F 29.9 in SO 2.9 mph 7.4 mph 69.4% 0 in
04:09 75.6 °F 64.8 °F 29.9 in SO 3.3 mph 7 mph 69% 0 in
04:14 75.6 °F 64.8 °F 29.9 in SSO 4 mph 5.4 mph 69% 0 in
04:19 75.6 °F 64.4 °F 29.9 in SO 3.7 mph 6 mph 68.1% 0 in
04:24 75.7 °F 64.4 °F 29.9 in SO 3.1 mph 6 mph 67.8% 0 in
04:29 75.7 °F 63.9 °F 29.9 in OSO 3.1 mph 8.1 mph 66.5% 0 in
04:34 75.7 °F 63.7 °F 29.9 in SO 3.1 mph 8.1 mph 66% 0 in
04:39 75.6 °F 63.5 °F 29.9 in SO 3.6 mph 8 mph 66% 0 in
04:44 75.6 °F 63.5 °F 29.9 in SSO 4.7 mph 8.5 mph 66.2% 0 in
04:49 75.6 °F 63.9 °F 29.9 in SSO 5 mph 9 mph 67.1% 0 in
04:54 75.4 °F 64 °F 29.9 in SSO 5.4 mph 8 mph 68% 0 in
04:59 75 °F 63.7 °F 29.9 in SO 4.8 mph 7.4 mph 68% 0 in
05:04 74.8 °F 63.9 °F 29.9 in OSO 4 mph 7.4 mph 68.8% 0 in
05:09 74.8 °F 64.2 °F 29.9 in Oeste 3.6 mph 7 mph 69.6% 0 in
05:14 74.7 °F 63.7 °F 29.9 in ONO 2.9 mph 5 mph 68.8% 0 in
05:19 74.5 °F 63.3 °F 29.9 in Oeste 3 mph 6.2 mph 68.1% 0 in
05:24 74.3 °F 63.5 °F 29.9 in OSO 3.1 mph 8.1 mph 69% 0 in
05:29 74.1 °F 63.3 °F 29.9 in SO 3.4 mph 8.1 mph 69% 0 in
05:34 73.9 °F 63.1 °F 29.9 in SO 4 mph 7 mph 69% 0 in
05:39 73.9 °F 62.8 °F 29.9 in SO 3.7 mph 6 mph 68.3% 0 in
05:44 74.1 °F 62.6 °F 29.9 in OSO 3.1 mph 6.9 mph 67.5% 0 in
05:49 74.1 °F 62.4 °F 29.9 in SO 3.4 mph 7 mph 67% 0 in
05:54 74.1 °F 62.4 °F 29.9 in SO 4 mph 7 mph 67% 0 in
05:59 74.1 °F 62.2 °F 29.9 in SO 3.9 mph 7.6 mph 66.3% 0 in
06:04 73.9 °F 61.9 °F 29.9 in SO 3.6 mph 8.1 mph 66% 0 in
06:09 73.9 °F 61.9 °F 29.9 in SO 3.9 mph 8 mph 66% 0 in
06:14 73.9 °F 62.1 °F 29.9 in SO 4.3 mph 6.9 mph 66.4% 0 in
06:19 73.9 °F 62.2 °F 29.9 in SO 4.2 mph 7 mph 67% 0 in
06:24 73.9 °F 62.2 °F 29.9 in OSO 4 mph 7 mph 67% 0 in
06:29 73.9 °F 62.2 °F 29.9 in OSO 3.7 mph 5.8 mph 67% 0 in
06:34 73.8 °F 62.1 °F 29.9 in Oeste 3.1 mph 6 mph 67% 0 in
06:39 73.6 °F 62.2 °F 29.9 in Oeste 3 mph 6 mph 67.6% 0 in
06:44 73.4 °F 62.2 °F 29.9 in Oeste 2.9 mph 6 mph 68% 0 in
06:49 73.2 °F 62.1 °F 29.9 in OSO 2.6 mph 5 mph 68% 0 in
06:54 73 °F 62.2 °F 29.9 in SO 2 mph 5 mph 68.7% 0 in
06:59 73 °F 62.2 °F 29.9 in SO 2 mph 5 mph 69% 0 in
07:04 73 °F 62.2 °F 29.9 in SSO 2 mph 5 mph 69% 0 in
07:09 73.2 °F 62.4 °F 29.9 in Sur 2.4 mph 6.2 mph 69% 0 in
07:14 73.2 °F 62.2 °F 29.9 in Sur 3.1 mph 7.4 mph 68.4% 0 in
07:19 73.4 °F 62.2 °F 29.9 in SSO 3.5 mph 7 mph 68% 0 in
07:24 73.4 °F 62.2 °F 29.9 in Sur 4.3 mph 9.2 mph 68.4% 0 in
07:29 73.2 °F 62.4 °F 29.9 in Sur 4.6 mph 9 mph 69.1% 0 in
07:34 73 °F 62.8 °F 29.9 in Sur 5.2 mph 8 mph 70% 0 in
07:39 72.9 °F 62.6 °F 29.9 in SSO 5 mph 8.1 mph 70% 0 in
07:44 73 °F 62.6 °F 29.9 in SSO 4.7 mph 8.1 mph 69.9% 0 in
07:49 73 °F 62.4 °F 29.9 in SO 4.8 mph 8.5 mph 69.3% 0 in
07:54 73.2 °F 62.4 °F 29.9 in OSO 5.2 mph 9 mph 69% 0 in
07:59 73.4 °F 62.6 °F 29.9 in SO 4.8 mph 8 mph 69% 0 in
08:04 73.6 °F 62.8 °F 29.9 in SSO 4.3 mph 7.6 mph 69% 0 in
08:09 73.8 °F 62.6 °F 29.9 in SSO 4.4 mph 8.1 mph 68.2% 0 in
08:14 73.9 °F 62.8 °F 29.9 in OSO 4.7 mph 7 mph 68% 0 in
08:19 74.1 °F 63 °F 29.9 in OSO 4.3 mph 7 mph 67.9% 0 in
08:24 74.5 °F 62.8 °F 29.9 in OSO 3.6 mph 7 mph 67.1% 0 in
08:29 74.5 °F 63.1 °F 29.9 in OSO 3.6 mph 7 mph 67.9% 0 in
08:34 74.7 °F 63 °F 29.9 in OSO 3.6 mph 7 mph 67% 0 in
08:39 74.7 °F 63.1 °F 29.9 in OSO 3.6 mph 6.2 mph 67.4% 0 in
08:44 74.8 °F 63.1 °F 29.9 in SO 3.6 mph 6 mph 67% 0 in
08:49 74.8 °F 63.1 °F 29.9 in Oeste 3.4 mph 6 mph 67% 0 in
08:54 75.2 °F 63.3 °F 29.9 in Oeste 3.1 mph 5.9 mph 66.4% 0 in
08:59 75.6 °F 63.3 °F 29.9 in SO 2.9 mph 6.2 mph 66% 0 in
09:04 75.6 °F 63.3 °F 29.9 in Oeste 2.4 mph 6 mph 65.8% 0 in
09:09 75.7 °F 63.1 °F 29.9 in OSO 2.5 mph 6.9 mph 65% 0 in
09:14 75.9 °F 63.3 °F 29.9 in OSO 2.9 mph 7 mph 65% 0 in
09:19 75.9 °F 63.3 °F 29.9 in NO 3.3 mph 7 mph 65% 0 in
09:24 75.9 °F 63.3 °F 29.9 in ONO 4 mph 7 mph 65% 0 in
09:29 76.1 °F 63.3 °F 29.9 in Oeste 3.7 mph 7 mph 65% 0 in
09:34 76.5 °F 63.5 °F 29.9 in NO 3.1 mph 5.9 mph 64.4% 0 in
09:39 76.6 °F 63.5 °F 29.9 in SSO 3 mph 6.9 mph 64.2% 0 in
09:44 76.8 °F 63.7 °F 29.9 in SO 2.9 mph 7 mph 64% 0 in
09:49 77 °F 63.7 °F 29.9 in SO 3.1 mph 7.4 mph 63.6% 0 in
09:54 77.4 °F 63.9 °F 29.9 in SO 3.6 mph 7.4 mph 63.1% 0 in
09:59 77.5 °F 63.9 °F 29.9 in Sur 3.9 mph 8.1 mph 62.5% 0 in
10:04 77.9 °F 63.9 °F 29.9 in SSO 4.3 mph 8.1 mph 62% 0 in
10:09 78.3 °F 64 °F 29.9 in OSO 4.3 mph 8.5 mph 61.6% 0 in
10:14 78.4 °F 63.9 °F 29.9 in SSO 4.3 mph 9 mph 61% 0 in
10:19 79 °F 64.2 °F 29.9 in SSO 4 mph 6.9 mph 60.7% 0 in
10:24 79.2 °F 64 °F 29.9 in SSO 3.6 mph 7 mph 60% 0 in
10:29 79.3 °F 63.9 °F 29.9 in SSO 3.9 mph 8.1 mph 59.4% 0 in
10:34 79.5 °F 63.5 °F 29.9 in Oeste 4.3 mph 8.1 mph 58% 0 in
10:39 80.1 °F 63.3 °F 29.9 in ONO 4.5 mph 8.1 mph 56.9% 0 in
10:44 80.2 °F 63.5 °F 29.9 in Oeste 4.7 mph 8 mph 56.7% 0 in
10:49 80.8 °F 63.5 °F 29.9 in Oeste 4.3 mph 9.2 mph 55.8% 0 in
10:54 81.1 °F 63.3 °F 29.9 in Oeste 3.6 mph 10.4 mph 54.8% 0 in
10:59 81.3 °F 64 °F 29.9 in OSO 4.3 mph 10.4 mph 55.6% 0 in
11:04 81.3 °F 63.7 °F 29.9 in SO 5.4 mph 10 mph 55% 0 in
11:09 81.7 °F 64 °F 29.9 in SSO 4.9 mph 10.2 mph 55.2% 0 in
11:14 81.7 °F 64 °F 29.9 in SSO 4 mph 10.4 mph 55% 0 in
11:19 81.7 °F 63.7 °F 29.9 in SSO 4.8 mph 13 mph 54.6% 0 in
11:24 81.9 °F 63.7 °F 29.9 in SSO 6.4 mph 13 mph 54% 0 in
11:29 82 °F 63.5 °F 29.9 in SSO 6.3 mph 14 mph 53.5% 0 in
11:34 82.2 °F 63 °F 29.9 in Sur 6.2 mph 14 mph 52.1% 0 in
11:39 82.8 °F 62.8 °F 29.9 in Sur 6 mph 9.2 mph 51% 0 in
11:44 82.8 °F 62.1 °F 29.9 in Sur 5.4 mph 9.2 mph 49.9% 0 in
11:49 82.8 °F 61.7 °F 29.9 in SSO 5.4 mph 9.2 mph 49.2% 0 in
11:54 82.8 °F 61.7 °F 29.9 in Sur 5.4 mph 10.2 mph 49.3% 0 in
11:59 82.6 °F 61.5 °F 29.9 in Sur 5.6 mph 10.4 mph 49% 0 in
12:04 82.8 °F 61.5 °F 29.9 in SSE 5.9 mph 10.4 mph 48.8% 0 in
12:09 82.9 °F 61.3 °F 29.9 in Sur 5.9 mph 10.7 mph 48% 0 in
12:14 83.1 °F 61 °F 29.9 in SSE 5.9 mph 11.5 mph 47.3% 0 in
12:19 83.1 °F 60.8 °F 29.9 in SSE 6.4 mph 12.5 mph 47% 0 in
12:24 82.9 °F 60.6 °F 29.9 in SSE 7.4 mph 13 mph 47% 0 in
12:29 82.9 °F 60.8 °F 29.9 in ESE 7.1 mph 10 mph 47.2% 0 in
12:34 83.1 °F 60.6 °F 29.9 in Este 6.4 mph 8 mph 46.7% 0 in
12:39 83.5 °F 60.6 °F 29.9 in ESE 5.5 mph 8.5 mph 46% 0 in
12:44 83.8 °F 60.8 °F 29.9 in NE 3.6 mph 9 mph 45.9% 0 in
12:49 84.6 °F 60.8 °F 29.9 in NE 3.4 mph 6.9 mph 44.9% 0 in
12:54 85.1 °F 60.8 °F 29.9 in ESE 2.9 mph 11.4 mph 44% 0 in
12:59 85.1 °F 60.4 °F 29.9 in SE 4.1 mph 12 mph 43.6% 0 in
13:04 85.1 °F 60.8 °F 29.9 in ESE 6.2 mph 12 mph 44.1% 0 in
13:09 85.3 °F 60.8 °F 29.9 in SE 6.2 mph 10.4 mph 43.8% 0 in
13:14 85.1 °F 60.8 °F 29.9 in SE 6.2 mph 10 mph 44% 0 in
13:19 85.5 °F 61.2 °F 29.9 in Sur 5.7 mph 9 mph 44.1% 0 in
13:24 85.8 °F 61.3 °F 29.9 in ESE 4.7 mph 11.5 mph 43.7% 0 in
13:29 86.4 °F 61.2 °F 29.9 in SE 4.3 mph 12 mph 43.1% 0 in
13:34 86.7 °F 61.3 °F 29.9 in NE 3.6 mph 7 mph 42.7% 0 in
13:39 87.4 °F 61.5 °F 29.9 in SSE 3.6 mph 7.6 mph 42% 0 in
13:44 87.8 °F 61.7 °F 29.9 in ENE 3.6 mph 8.1 mph 41.8% 0 in
13:49 87.6 °F 61.2 °F 29.9 in Este 4 mph 15.9 mph 41.2% 0 in
13:54 87.3 °F 61.5 °F 29.9 in ESE 4.7 mph 16.3 mph 42.3% 0 in
13:59 87.3 °F 62.2 °F 29.9 in ESE 6.2 mph 16.1 mph 43.5% 0 in
14:04 87.1 °F 62.4 °F 29.9 in Este 8.7 mph 16 mph 44% 0 in
14:09 86.5 °F 62.1 °F 29.8 in Este 7.6 mph 10 mph 44.1% 0 in
14:14 86.4 °F 62.1 °F 29.8 in ESE 5.4 mph 7.4 mph 44.2% 0 in
14:19 86.4 °F 62.1 °F 29.8 in Este 5.2 mph 7.4 mph 44.5% 0 in
14:24 86.4 °F 62.1 °F 29.8 in NE 4.7 mph 12.7 mph 44.6% 0 in
14:29 86.2 °F 62.4 °F 29.8 in NE 5.1 mph 13 mph 45% 0 in
14:34 86.4 °F 62.4 °F 29.8 in NNE 5.9 mph 10.7 mph 45% 0 in
14:39 86.2 °F 62.8 °F 29.8 in NE 6.2 mph 15 mph 45.8% 0 in
14:44 85.8 °F 62.6 °F 29.8 in NE 6.9 mph 15 mph 46.1% 0 in
14:49 85.8 °F 62.6 °F 29.8 in NE 6.6 mph 9.2 mph 46% 0 in
14:54 85.8 °F 62.6 °F 29.8 in ENE 5.9 mph 9 mph 46% 0 in
14:59 86.4 °F 62.6 °F 29.8 in ESE 4.8 mph 6.2 mph 45.4% 0 in
15:04 86.4 °F 62.6 °F 29.8 in NE 3.1 mph 6.2 mph 45% 0 in
15:09 86.7 °F 63 °F 29.8 in ESE 3.3 mph 10.4 mph 45% 0 in
15:14 87.3 °F 63 °F 29.8 in ENE 3.6 mph 10 mph 44.4% 0 in
15:19 87.6 °F 62.8 °F 29.8 in SSE 4 mph 8 mph 43.8% 0 in
15:24 88.2 °F 63.1 °F 29.8 in ESE 4.7 mph 10 mph 43.5% 0 in
15:29 88.5 °F 62.2 °F 29.8 in SE 4.7 mph 10.4 mph 41.6% 0 in
15:34 88.5 °F 61.9 °F 29.8 in SSE 4.7 mph 10 mph 41% 0 in
15:39 88.5 °F 61.5 °F 29.8 in SSO 4.7 mph 8.5 mph 40.7% 0 in
15:44 88.5 °F 61.7 °F 29.8 in SSO 4.7 mph 9 mph 40.8% 0 in
15:49 89.1 °F 61.7 °F 29.8 in SE 4.1 mph 6 mph 40.3% 0 in
15:54 89.6 °F 61.2 °F 29.8 in SO 2.9 mph 7.4 mph 38.9% 0 in
15:59 90 °F 61 °F 29.8 in SSE 2.9 mph 9.7 mph 38% 0 in
16:04 89.4 °F 60.8 °F 29.8 in Sur 2.9 mph 10 mph 38.5% 0 in
16:09 89.2 °F 61 °F 29.8 in SO 3.5 mph 9 mph 39% 0 in
16:14 89.6 °F 61.3 °F 29.8 in NNO 4.7 mph 8.1 mph 39.1% 0 in
16:19 90 °F 61.3 °F 29.8 in ENE 4.5 mph 8.1 mph 38.6% 0 in
16:24 90 °F 61.7 °F 29.8 in ENE 4 mph 8.1 mph 39% 0 in
16:29 90.1 °F 61.7 °F 29.8 in North 4 mph 8.1 mph 39% 0 in
16:34 90.5 °F 61.9 °F 29.8 in NNE 4 mph 8 mph 38.6% 0 in
16:39 90.9 °F 62.2 °F 29.8 in NNE 3.9 mph 9.2 mph 38.6% 0 in
16:44 91 °F 62.6 °F 29.8 in NE 3.6 mph 9.2 mph 38.8% 0 in
16:49 91 °F 62.2 °F 29.8 in NNE 4.2 mph 9.2 mph 38.2% 0 in
16:54 91 °F 62.2 °F 29.8 in NNE 5.4 mph 9 mph 38.2% 0 in
16:59 91.4 °F 62.2 °F 29.8 in NNE 5 mph 11.5 mph 38% 0 in
17:04 91.4 °F 62.2 °F 29.8 in NE 4.3 mph 12.7 mph 38% 0 in
17:09 91.4 °F 62.2 °F 29.8 in NE 5 mph 13 mph 38% 0 in
17:14 91.8 °F 62.4 °F 29.8 in NE 6.4 mph 10 mph 38% 0 in
17:19 91.9 °F 62.6 °F 29.8 in NE 6.2 mph 12.7 mph 38% 0 in
17:24 91.9 °F 62.6 °F 29.8 in NNE 5.4 mph 13 mph 38% 0 in
17:29 91.9 °F 63 °F 29.8 in NE 5.9 mph 12.7 mph 38.4% 0 in
17:34 92.1 °F 63.1 °F 29.8 in NE 6.9 mph 13 mph 38.4% 0 in
17:39 91.9 °F 63.5 °F 29.8 in NE 6.9 mph 11.8 mph 38.9% 0 in
17:44 92.1 °F 63.5 °F 29.8 in NE 6.9 mph 12.5 mph 38.8% 0 in
17:49 92.3 °F 64.2 °F 29.8 in NE 6.9 mph 13 mph 39.7% 0 in
17:54 92.3 °F 65.3 °F 29.8 in ENE 6.9 mph 13 mph 41.1% 0 in
17:59 92.5 °F 64.8 °F 29.8 in ENE 6.7 mph 13.7 mph 40.3% 0 in
18:04 92.5 °F 66.4 °F 29.8 in NE 6.4 mph 14 mph 42.4% 0 in
18:09 92.3 °F 66.9 °F 29.8 in NE 7.1 mph 15 mph 43.7% 0 in
18:14 91.9 °F 67.5 °F 29.8 in NNE 8.5 mph 17 mph 45% 0 in
18:19 91.8 °F 68.2 °F 29.8 in NE 8.9 mph 17.3 mph 46.3% 0 in
18:24 91.6 °F 68.9 °F 29.8 in NE 9.7 mph 20.1 mph 47.7% 0 in
18:29 91 °F 68.7 °F 29.8 in NE 9.8 mph 21 mph 48% 0 in
18:34 91.4 °F 67.1 °F 29.8 in Este 10 mph 16 mph 45% 0 in
18:39 91.6 °F 66.7 °F 29.8 in Este 8.8 mph 13 mph 44.3% 0 in
18:44 91.4 °F 67.5 °F 29.8 in ESE 6.2 mph 17.5 mph 45.7% 0 in
18:49 90.5 °F 68.4 °F 29.8 in ESE 7.8 mph 19.6 mph 48.2% 0 in
18:54 89.8 °F 68.9 °F 29.8 in ESE 10.7 mph 20.8 mph 50.5% 0 in
18:59 88.7 °F 69.1 °F 29.8 in ESE 11.1 mph 21 mph 52.4% 0 in
19:04 87.8 °F 69.4 °F 29.8 in ESE 11.8 mph 22.3 mph 54.5% 0 in
19:09 87.3 °F 69.6 °F 29.8 in ESE 12.4 mph 22 mph 56% 0 in
19:14 86.5 °F 69.6 °F 29.8 in ESE 13.7 mph 20 mph 57.1% 0 in
19:19 86.5 °F 69.6 °F 29.8 in ESE 13.2 mph 23.5 mph 57.5% 0 in
19:24 85.6 °F 70 °F 29.8 in ESE 11.8 mph 23 mph 59.4% 0 in
19:29 85.5 °F 70 °F 29.8 in ESE 11.7 mph 19 mph 60% 0 in
19:34 85.5 °F 69.8 °F 29.8 in ESE 11.4 mph 20.7 mph 60% 0 in
19:39 85.1 °F 69.6 °F 29.8 in ESE 11.3 mph 21 mph 60% 0 in
19:44 84.9 °F 69.8 °F 29.8 in ESE 11.2 mph 20 mph 60.8% 0 in
19:49 84.6 °F 69.6 °F 29.8 in ESE 11.4 mph 19 mph 61% 0 in
19:54 84.6 °F 69.6 °F 29.8 in ESE 11.8 mph 17 mph 61% 0 in
19:59 84.6 °F 69.6 °F 29.8 in ESE 11.1 mph 16.1 mph 61% 0 in
20:04 84.2 °F 69.4 °F 29.8 in ESE 10 mph 16 mph 61.6% 0 in
20:09 83.8 °F 69.4 °F 29.8 in ESE 10 mph 17.5 mph 62.1% 0 in
20:14 83.7 °F 69.6 °F 29.8 in ESE 10 mph 18.4 mph 63% 0 in
20:19 83.1 °F 69.8 °F 29.8 in ESE 10.3 mph 19.6 mph 64.1% 0 in
20:24 82.9 °F 70 °F 29.8 in Este 10.7 mph 20 mph 65% 0 in
20:29 82.6 °F 70.2 °F 29.8 in Este 10.5 mph 20.7 mph 66% 0 in
20:34 82.2 °F 70.2 °F 29.8 in ESE 10.2 mph 21 mph 67.1% 0 in
20:39 82 °F 70.3 °F 29.8 in ESE 10 mph 18.4 mph 68% 0 in
20:44 81.7 °F 70.5 °F 29.8 in ESE 9.7 mph 16 mph 68.8% 0 in
20:49 81.5 °F 70.3 °F 29.8 in ESE 9.5 mph 17 mph 69.2% 0 in
20:54 81.1 °F 70.5 °F 29.8 in ESE 9.2 mph 17.3 mph 70% 0 in
20:59 81.1 °F 70.5 °F 29.8 in Este 8.9 mph 17 mph 70.5% 0 in
21:04 81 °F 70.7 °F 29.8 in ESE 8.5 mph 16.3 mph 71% 0 in
21:09 80.8 °F 70.7 °F 29.8 in ESE 8.4 mph 16.1 mph 71.6% 0 in
21:14 80.6 °F 70.7 °F 29.8 in ESE 8.1 mph 14 mph 72% 0 in
21:19 80.4 °F 70.5 °F 29.8 in ESE 7.8 mph 13 mph 72% 0 in
21:24 80.4 °F 70.7 °F 29.8 in ESE 7.4 mph 12 mph 72% 0 in
21:29 80.4 °F 70.3 °F 29.8 in ESE 6.8 mph 11.8 mph 71.4% 0 in
21:34 80.4 °F 70.3 °F 29.8 in ESE 5.4 mph 12.3 mph 71.1% 0 in
21:39 80.2 °F 70.5 °F 29.8 in ESE 5.9 mph 13 mph 72% 0 in
21:44 80.1 °F 70.5 °F 29.8 in ESE 6.9 mph 13 mph 72.9% 0 in
21:49 80.1 °F 70.5 °F 29.8 in ESE 6.9 mph 12.7 mph 73% 0 in
21:54 79.9 °F 70.3 °F 29.8 in ESE 6.9 mph 13 mph 73% 0 in
21:59 79.9 °F 70.3 °F 29.8 in ESE 6.3 mph 13 mph 73% 0 in
22:04 79.9 °F 70.3 °F 29.9 in Este 5.4 mph 6 mph 73% 0 in
22:09 79.9 °F 70.3 °F 29.9 in ESE 4.6 mph 6.9 mph 73% 0 in
22:14 79.9 °F 70.3 °F 29.9 in SE 3.1 mph 7 mph 73% 0 in
22:19 79.9 °F 70.3 °F 29.9 in Este 3 mph 6 mph 73% 0 in
22:24 79.9 °F 70.3 °F 29.9 in ENE 2.9 mph 6 mph 73% 0 in
22:29 79.5 °F 70.3 °F 29.9 in NE 3 mph 6.9 mph 73.2% 0 in
22:34 79.3 °F 70.3 °F 29.9 in NNE 3.1 mph 7.4 mph 74% 0 in
22:39 79.3 °F 70.3 °F 29.9 in NE 3.7 mph 7.4 mph 74.3% 0 in
22:44 79.2 °F 70.5 °F 29.9 in NE 4.7 mph 10.4 mph 75% 0 in
22:49 79 °F 70.3 °F 29.9 in NE 4.7 mph 10 mph 75% 0 in
22:54 79 °F 70.3 °F 29.9 in ENE 4.7 mph 7 mph 75% 0 in
22:59 79 °F 70.3 °F 29.9 in NE 4.3 mph 7 mph 75% 0 in
23:04 79 °F 70.3 °F 29.9 in NE 3.6 mph 6.2 mph 75% 0 in
23:09 79 °F 70.5 °F 29.9 in ENE 3.6 mph 6.4 mph 75.1% 0 in
23:14 79 °F 70.5 °F 29.9 in ESE 3.6 mph 9.7 mph 75.2% 0 in
23:19 79 °F 70.5 °F 29.9 in SE 4 mph 10 mph 75.1% 0 in
23:24 79 °F 70.3 °F 29.9 in SE 4.7 mph 9 mph 75% 0 in
23:29 79 °F 70.3 °F 29.9 in SE 4.9 mph 9.2 mph 75% 0 in
23:34 79.2 °F 70.5 °F 29.9 in ESE 5.4 mph 9.2 mph 75% 0 in
23:39 79.2 °F 70.3 °F 29.9 in SE 5.4 mph 9 mph 74.3% 0 in
23:44 79.2 °F 70.2 °F 29.9 in SE 5.4 mph 8.1 mph 74% 0 in
23:49 79.2 °F 70.2 °F 29.9 in ESE 5 mph 8 mph 74% 0 in
23:54 79.2 °F 70.2 °F 29.9 in SE 4.3 mph 6 mph 73.8% 0 in
23:59 79.2 °F 69.8 °F 29.9 in SE 4 mph 6.9 mph 73% 0 in
Murcia-Puente Tocinos, Espa?a
Compliments of Weather Underground - 3.25 mb

La estación de MeteoMurcia.com, publica sus datos en los siguientes proyectos:

Weather Underground PWS IMURCIAP2 Meteoclimatic www.awekas.at

Web Analytics

Clicky